KGTF

Great Falls International Airport

Great Falls, Montana, USA
METAR KGTF 212253Z 14006KT 10SM CLR 19/08 A3024 RMK AO2 SLP238 T01940083
Observed Flight Rules
Aug-21 @ 22:53 UTC (52 minutes ago) Visual Flight Rules
Wind Visibility Clouds
140° at 6 knots 10 miles
  • Clear skies
Temperatures Readings
Current 19°C / 66°F
Dewpoint 8°C / 46°F
Humidity 49%
Altimeter 30.24" Hg
Pressure 1023.8 hPa
Elevation 1119
METAR KGTF 212253Z 14006KT 10SM CLR 19/08 A3024 RMK AO2 SLP238 T01940083
Observed Flight Rules
Aug-21 @ 22:53 UTC
(52 minutes ago)
VFR
Wind Visibility
140° at 6 knots 10 miles
Clouds
  • Clear skies
Temperature Dewpoint
19°C / 66°F 8°C / 46°F
Humidity Altimeter Pressure
49% 30.24" Hg 1023.8 hPa